Time;durP1;ratioP1;P1;durP2;ratioP2;P2;SDS_P1;SDS_P2;PMS_P1;PMS_P2;Temp;Humidity;BMP_temperature;BMP_pressure;BME280_temperature;BME280_humidity;BME280_pressure;Samples;Min_cycle;Max_cycle;Signal;HPM_P1;HPM_P2
2023/05/31 00:02:50;;;;;;;6.37;5.80;;;;;;;;;;6123244;28;109066;-71
2023/05/31 00:05:53;;;;;;;5.47;4.97;;;;;;;;;;6113326;28;109411;-71
2023/05/31 00:08:56;;;;;;;6.30;5.70;;;;;;;;;;6121148;28;109993;-70
2023/05/31 00:11:58;;;;;;;5.80;5.30;;;;;;;;;;6127901;28;109330;-71
2023/05/31 00:15:03;;;;;;;6.40;5.80;;;;;;;;;;6156084;28;108992;-71
2023/05/31 00:18:06;;;;;;;5.10;4.70;;;;;;;;;;6146051;28;110897;-70
2023/05/31 00:21:09;;;;;;;5.40;5.00;;;;;;;;;;6129819;28;111325;-71
2023/05/31 00:24:12;;;;;;;5.57;5.10;;;;;;;;;;6138366;28;110146;-71
2023/05/31 00:27:15;;;;;;;5.60;5.03;;;;;;;;;;6121233;28;110097;-71
2023/05/31 00:30:19;;;;;;;6.63;6.07;;;;;;;;;;6113539;28;109744;-70
2023/05/31 00:33:22;;;;;;;5.70;5.30;;;;;;;;;;6139209;28;109410;-71
2023/05/31 00:36:25;;;;;;;5.53;5.03;;;;;;;;;;6140824;28;109433;-71
2023/05/31 00:39:28;;;;;;;5.60;5.10;;;;;;;;;;6120779;28;108903;-70
2023/05/31 00:42:31;;;;;;;5.93;5.43;;;;;;;;;;6129243;28;109122;-71
2023/05/31 00:45:35;;;;;;;6.43;5.87;;;;;;;;;;6125033;28;109263;-71
2023/05/31 00:48:40;;;;;;;5.43;5.03;;;;;;;;;;6129984;28;111910;-71
2023/05/31 00:51:43;;;;;;;6.33;5.73;;;;;;;;;;6106399;28;110129;-71
2023/05/31 00:54:46;;;;;;;5.73;5.33;;;;;;;;;;6116620;28;109028;-70
2023/05/31 00:57:49;;;;;;;5.47;5.07;;;;;;;;;;6127145;28;110681;-71
2023/05/31 01:00:53;;;;;;;5.93;5.47;;;;;;;;;;6125411;28;109017;-71
2023/05/31 01:03:56;;;;;;;6.30;5.60;;;;;;;;;;6126887;28;109096;-71
2023/05/31 01:07:00;;;;;;;5.30;4.80;;;;;;;;;;6131970;28;109345;-71
2023/05/31 01:10:04;;;;;;;6.00;5.30;;;;;;;;;;6127592;28;109009;-71
2023/05/31 01:13:11;;;;;;;6.80;5.20;;;;;;;;;;6116914;28;108952;-71
2023/05/31 01:16:20;;;;;;;5.97;5.47;;;;;;;;;;6149388;28;109027;-66
2023/05/31 01:19:32;;;;;;;6.03;5.53;;;;;;;;;;6151828;28;109169;-66
2023/05/31 01:22:43;;;;;;;6.80;6.20;;;;;;;;;;6137347;28;110600;-67
2023/05/31 01:26:06;;;;;;;6.47;5.87;;;;;;;;;;6105196;28;109977;-67
2023/05/31 01:29:13;;;;;;;6.70;6.20;;;;;;;;;;6126087;28;108960;-67
2023/05/31 01:32:16;;;;;;;7.23;6.43;;;;;;;;;;6128774;28;108837;-66
2023/05/31 01:35:19;;;;;;;5.60;5.10;;;;;;;;;;6116233;28;108554;-67
2023/05/31 01:38:22;;;;;;;5.73;5.23;;;;;;;;;;6104547;28;111740;-67
2023/05/31 01:41:27;;;;;;;6.20;5.60;;;;;;;;;;6132223;28;109627;-67
2023/05/31 01:44:32;;;;;;;5.83;5.33;;;;;;;;;;6141774;28;109022;-66
2023/05/31 01:47:35;;;;;;;7.80;6.60;;;;;;;;;;6134894;28;110853;-68
2023/05/31 01:50:40;;;;;;;6.90;6.27;;;;;;;;;;6133787;28;108851;-66
2023/05/31 01:53:43;;;;;;;6.80;5.80;;;;;;;;;;6120238;28;108772;-66
2023/05/31 01:56:46;;;;;;;7.67;5.50;;;;;;;;;;6114714;28;109021;-67
2023/05/31 01:59:51;;;;;;;6.90;5.40;;;;;;;;;;6117687;28;109014;-67
2023/05/31 02:02:55;;;;;;;7.20;5.90;;;;;;;;;;6126759;28;109969;-67
2023/05/31 02:05:59;;;;;;;6.43;5.93;;;;;;;;;;6121166;28;109857;-66
2023/05/31 02:09:01;;;;;;;6.10;5.60;;;;;;;;;;6136569;28;109027;-68
2023/05/31 02:12:05;;;;;;;6.17;5.67;;;;;;;;;;6125540;28;110201;-67
2023/05/31 02:15:10;;;;;;;6.30;5.80;;;;;;;;;;6144785;28;108956;-66
2023/05/31 02:18:16;;;;;;;6.40;5.70;;;;;;;;;;6123889;28;110463;-66
2023/05/31 02:21:19;;;;;;;5.73;5.20;;;;;;;;;;6111806;28;108929;-66
2023/05/31 02:24:22;;;;;;;5.87;5.37;;;;;;;;;;6115884;28;110482;-66
2023/05/31 02:27:25;;;;;;;6.50;5.27;;;;;;;;;;6131094;28;109641;-66
2023/05/31 02:30:29;;;;;;;10.60;6.57;;;;;;;;;;6118329;28;109354;-66
2023/05/31 02:33:32;;;;;;;8.53;6.27;;;;;;;;;;6119804;28;109702;-66
2023/05/31 02:36:35;;;;;;;11.30;6.40;;;;;;;;;;6130976;28;109639;-66
2023/05/31 02:39:38;;;;;;;8.50;5.80;;;;;;;;;;6119198;28;109484;-65
2023/05/31 02:42:41;;;;;;;10.00;5.30;;;;;;;;;;6127765;28;110428;-66
2023/05/31 02:45:46;;;;;;;7.70;6.30;;;;;;;;;;6121408;28;109989;-68
2023/05/31 02:48:49;;;;;;;6.40;5.70;;;;;;;;;;6114897;28;109228;-66
2023/05/31 02:51:51;;;;;;;7.97;6.40;;;;;;;;;;6129506;28;109378;-67
2023/05/31 02:54:54;;;;;;;5.50;5.00;;;;;;;;;;6132691;28;111390;-67
2023/05/31 02:57:57;;;;;;;7.57;6.00;;;;;;;;;;6113528;28;110009;-67
2023/05/31 03:01:02;;;;;;;7.57;6.97;;;;;;;;;;6122606;28;110093;-68
2023/05/31 03:04:05;;;;;;;7.40;5.60;;;;;;;;;;6134167;28;108927;-68
2023/05/31 03:07:08;;;;;;;6.50;5.97;;;;;;;;;;6109130;28;109466;-68
2023/05/31 03:10:11;;;;;;;7.10;6.40;;;;;;;;;;6118205;28;108960;-68
2023/05/31 03:13:13;;;;;;;10.43;9.53;;;;;;;;;;6137567;28;109198;-68
2023/05/31 03:16:20;;;;;;;8.50;7.23;;;;;;;;;;6134997;28;108975;-67
2023/05/31 03:19:23;;;;;;;9.40;6.93;;;;;;;;;;6126334;28;109046;-70
2023/05/31 03:22:26;;;;;;;14.77;10.60;;;;;;;;;;6128204;28;109006;-70
2023/05/31 03:25:29;;;;;;;17.33;14.73;;;;;;;;;;6120843;28;110261;-70
2023/05/31 03:28:32;;;;;;;16.63;14.07;;;;;;;;;;6140945;28;108996;-70
2023/05/31 03:31:36;;;;;;;12.50;9.70;;;;;;;;;;6128789;28;108987;-71
2023/05/31 03:34:40;;;;;;;12.60;8.87;;;;;;;;;;6154668;28;109192;-70
2023/05/31 03:37:42;;;;;;;10.40;8.60;;;;;;;;;;6141691;28;109974;-68
2023/05/31 03:40:45;;;;;;;8.67;7.47;;;;;;;;;;6137484;28;109664;-68
2023/05/31 03:43:50;;;;;;;7.73;7.03;;;;;;;;;;6133777;28;109003;-67
2023/05/31 03:46:55;;;;;;;7.53;6.83;;;;;;;;;;6124485;28;109083;-67
2023/05/31 03:49:58;;;;;;;8.00;7.30;;;;;;;;;;6138137;28;109081;-67
2023/05/31 03:53:01;;;;;;;7.10;6.23;;;;;;;;;;6130479;28;109480;-68
2023/05/31 03:56:04;;;;;;;23.07;7.57;;;;;;;;;;6138545;28;108974;-68
2023/05/31 03:59:07;;;;;;;8.93;7.20;;;;;;;;;;6117396;28;109045;-68
2023/05/31 04:02:11;;;;;;;11.20;7.43;;;;;;;;;;6129722;28;109320;-66
2023/05/31 04:05:14;;;;;;;10.80;6.90;;;;;;;;;;6130021;28;109122;-67
2023/05/31 04:08:18;;;;;;;10.27;7.10;;;;;;;;;;6138864;28;109029;-68
2023/05/31 04:11:20;;;;;;;9.57;6.73;;;;;;;;;;6136899;28;109032;-67
2023/05/31 04:14:23;;;;;;;11.10;7.00;;;;;;;;;;6139445;28;109046;-66
2023/05/31 04:17:28;;;;;;;16.87;7.30;;;;;;;;;;6135306;28;109094;-67
2023/05/31 04:20:31;;;;;;;20.23;8.37;;;;;;;;;;6149056;28;111080;-68
2023/05/31 04:23:34;;;;;;;21.67;9.87;;;;;;;;;;6134820;28;109077;-66
2023/05/31 04:26:37;;;;;;;20.83;11.60;;;;;;;;;;6133994;28;109485;-62
2023/05/31 04:29:40;;;;;;;14.23;9.40;;;;;;;;;;6133289;28;110351;-67
2023/05/31 04:32:44;;;;;;;20.67;9.20;;;;;;;;;;6116472;28;108773;-69
2023/05/31 04:35:48;;;;;;;27.33;10.43;;;;;;;;;;6116030;28;109074;-69
2023/05/31 04:38:51;;;;;;;19.67;10.00;;;;;;;;;;6104254;28;108983;-69
2023/05/31 04:41:54;;;;;;;15.57;11.20;;;;;;;;;;6125397;28;109055;-69
2023/05/31 04:45:01;;;;;;;12.30;9.13;;;;;;;;;;6145679;28;109370;-72
2023/05/31 04:48:05;;;;;;;15.30;9.53;;;;;;;;;;6164907;28;112164;-69
2023/05/31 04:51:08;;;;;;;9.57;8.30;;;;;;;;;;6154852;28;109820;-68
2023/05/31 04:54:11;;;;;;;10.50;8.80;;;;;;;;;;6164472;28;109006;-68
2023/05/31 04:57:14;;;;;;;12.23;9.03;;;;;;;;;;6164007;28;109508;-69
2023/05/31 05:00:19;;;;;;;10.00;8.23;;;;;;;;;;6160275;28;109020;-70
2023/05/31 05:03:24;;;;;;;8.17;7.40;;;;;;;;;;6158380;28;110317;-68
2023/05/31 05:06:27;;;;;;;8.90;8.00;;;;;;;;;;6164151;28;109108;-69
2023/05/31 05:09:30;;;;;;;10.00;7.40;;;;;;;;;;6163794;28;109663;-69
2023/05/31 05:12:33;;;;;;;8.30;7.50;;;;;;;;;;6154039;28;108658;-69
2023/05/31 05:15:36;;;;;;;7.97;7.17;;;;;;;;;;6163652;28;109066;-68
2023/05/31 05:18:40;;;;;;;9.53;7.70;;;;;;;;;;6163924;28;108794;-69
2023/05/31 05:21:43;;;;;;;8.63;7.30;;;;;;;;;;6163664;28;109056;-68
2023/05/31 05:24:46;;;;;;;8.13;7.40;;;;;;;;;;6153318;28;109229;-68
2023/05/31 05:27:49;;;;;;;9.10;7.77;;;;;;;;;;6163848;28;108966;-68
2023/05/31 05:30:53;;;;;;;8.50;7.77;;;;;;;;;;6149908;28;108975;-68
2023/05/31 05:33:57;;;;;;;8.03;7.23;;;;;;;;;;6115348;28;109024;-67
2023/05/31 05:37:00;;;;;;;8.20;7.17;;;;;;;;;;6105291;28;109029;-67
2023/05/31 05:40:06;;;;;;;8.40;7.30;;;;;;;;;;6115144;28;109012;-68
2023/05/31 05:43:09;;;;;;;7.93;7.23;;;;;;;;;;6115735;28;110960;-67
2023/05/31 05:46:12;;;;;;;7.87;7.13;;;;;;;;;;6141397;28;111831;-68
2023/05/31 05:49:16;;;;;;;8.93;7.40;;;;;;;;;;6158370;28;109311;-68
2023/05/31 05:52:21;;;;;;;7.80;7.10;;;;;;;;;;6163659;28;109574;-68
2023/05/31 05:55:24;;;;;;;8.00;7.20;;;;;;;;;;6163383;28;109332;-68
2023/05/31 05:58:27;;;;;;;11.30;7.80;;;;;;;;;;6152143;28;110191;-68
2023/05/31 06:01:30;;;;;;;8.20;7.47;;;;;;;;;;6162710;28;108813;-69
2023/05/31 06:04:35;;;;;;;8.23;7.23;;;;;;;;;;6163027;28;109667;-68
2023/05/31 06:07:38;;;;;;;8.83;7.63;;;;;;;;;;6162982;28;109169;-69
2023/05/31 06:10:41;;;;;;;7.83;7.23;;;;;;;;;;6151835;28;109111;-69
2023/05/31 06:13:44;;;;;;;8.20;7.60;;;;;;;;;;6162709;28;109005;-69
2023/05/31 06:16:47;;;;;;;8.27;7.57;;;;;;;;;;6139989;28;111119;-69
2023/05/31 06:19:51;;;;;;;10.60;8.20;;;;;;;;;;6126789;28;109332;-69
2023/05/31 06:22:54;;;;;;;35.43;11.23;;;;;;;;;;6129781;28;109785;-69
2023/05/31 06:25:57;;;;;;;18.20;8.23;;;;;;;;;;6145707;28;111420;-68
2023/05/31 06:29:00;;;;;;;9.70;8.27;;;;;;;;;;6161613;28;109465;-67
2023/05/31 06:32:03;;;;;;;10.23;7.70;;;;;;;;;;6128429;28;108906;-67
2023/05/31 06:35:08;;;;;;;10.37;8.20;;;;;;;;;;6156747;28;108596;-69
2023/05/31 06:38:15;;;;;;;11.00;8.70;;;;;;;;;;6138343;28;108998;-67
2023/05/31 06:41:18;;;;;;;8.60;7.90;;;;;;;;;;6130222;28;110048;-66
2023/05/31 06:44:21;;;;;;;10.57;9.50;;;;;;;;;;6135438;28;109689;-67
2023/05/31 06:47:23;;;;;;;11.87;7.80;;;;;;;;;;6145787;28;109196;-69
2023/05/31 06:50:28;;;;;;;8.70;7.40;;;;;;;;;;6144702;28;109060;-68
2023/05/31 06:53:31;;;;;;;9.10;8.20;;;;;;;;;;6145564;28;108832;-67
2023/05/31 06:56:34;;;;;;;14.93;9.03;;;;;;;;;;6138271;28;109022;-68
2023/05/31 06:59:37;;;;;;;33.90;10.40;;;;;;;;;;6154108;28;109575;-67
2023/05/31 07:02:40;;;;;;;11.43;8.43;;;;;;;;;;6146436;28;109319;-67
2023/05/31 07:05:44;;;;;;;9.70;8.37;;;;;;;;;;6137118;28;109030;-68
2023/05/31 07:08:47;;;;;;;14.10;8.33;;;;;;;;;;6124416;28;109761;-72
2023/05/31 07:11:50;;;;;;;12.20;8.30;;;;;;;;;;6135211;28;111342;-73
2023/05/31 07:14:53;;;;;;;9.77;7.70;;;;;;;;;;6152136;28;108801;-72
2023/05/31 07:17:56;;;;;;;20.83;9.90;;;;;;;;;;6126422;28;108963;-72
2023/05/31 07:21:01;;;;;;;17.00;9.87;;;;;;;;;;6148488;28;109090;-72
2023/05/31 07:24:05;;;;;;;14.93;9.33;;;;;;;;;;6129054;28;108772;-73
2023/05/31 07:27:08;;;;;;;12.87;9.03;;;;;;;;;;6143225;28;109981;-73
2023/05/31 07:30:11;;;;;;;10.97;8.70;;;;;;;;;;6123791;28;109868;-75
2023/05/31 07:33:15;;;;;;;15.23;9.83;;;;;;;;;;6137555;28;109301;-73
2023/05/31 07:36:30;;;;;;;15.27;10.37;;;;;;;;;;6137102;28;109133;-72
2023/05/31 07:39:33;;;;;;;12.53;9.43;;;;;;;;;;6124290;28;109229;-72
2023/05/31 07:42:36;;;;;;;11.30;8.53;;;;;;;;;;6131392;28;109168;-72
2023/05/31 07:45:39;;;;;;;9.53;8.47;;;;;;;;;;6141467;28;108744;-71
2023/05/31 07:48:42;;;;;;;10.60;8.13;;;;;;;;;;6152138;28;109342;-72
2023/05/31 07:51:47;;;;;;;8.90;8.20;;;;;;;;;;6137160;28;109073;-72
2023/05/31 07:54:50;;;;;;;8.70;7.90;;;;;;;;;;6150931;28;108995;-72
2023/05/31 07:57:53;;;;;;;8.70;7.83;;;;;;;;;;6135705;28;109521;-72
2023/05/31 08:00:55;;;;;;;8.43;7.63;;;;;;;;;;6143817;28;110640;-66
2023/05/31 08:04:06;;;;;;;8.97;7.40;;;;;;;;;;6118329;28;109226;-73
2023/05/31 08:07:10;;;;;;;15.87;7.20;;;;;;;;;;6129158;28;109427;-77
2023/05/31 08:10:14;;;;;;;12.03;8.17;;;;;;;;;;6121442;28;109127;-73
2023/05/31 08:13:16;;;;;;;8.40;7.60;;;;;;;;;;6114448;28;109103;-76
2023/05/31 08:16:19;;;;;;;9.20;7.93;;;;;;;;;;6138274;28;109114;-76
2023/05/31 08:19:22;;;;;;;14.47;8.30;;;;;;;;;;6165822;28;112039;-69
2023/05/31 08:22:27;;;;;;;8.67;7.80;;;;;;;;;;6165637;28;108871;-69
2023/05/31 08:25:30;;;;;;;8.63;6.83;;;;;;;;;;6155811;28;109177;-69
2023/05/31 08:28:33;;;;;;;9.93;8.70;;;;;;;;;;6143340;28;109260;-69
2023/05/31 08:31:36;;;;;;;9.80;8.20;;;;;;;;;;6125778;28;108765;-71
2023/05/31 08:34:39;;;;;;;9.10;7.10;;;;;;;;;;6140068;28;108996;-65
2023/05/31 08:37:44;;;;;;;8.23;7.43;;;;;;;;;;6122362;28;109371;-68
2023/05/31 08:40:50;;;;;;;8.17;7.37;;;;;;;;;;6133277;28;109282;-69
2023/05/31 08:43:53;;;;;;;9.00;7.10;;;;;;;;;;6135313;28;109970;-69
2023/05/31 08:46:58;;;;;;;9.00;6.93;;;;;;;;;;6136632;28;109344;-67
2023/05/31 08:50:01;;;;;;;14.17;7.27;;;;;;;;;;6130533;28;109361;-69
2023/05/31 08:53:07;;;;;;;13.33;9.97;;;;;;;;;;6144040;28;109427;-70
2023/05/31 08:56:11;;;;;;;9.33;8.53;;;;;;;;;;6139153;28;108889;-69
2023/05/31 08:59:17;;;;;;;7.87;7.20;;;;;;;;;;6135508;28;109348;-68
2023/05/31 09:02:21;;;;;;;7.30;6.60;;;;;;;;;;6130427;28;109066;-68
2023/05/31 09:05:23;;;;;;;9.30;7.37;;;;;;;;;;6148932;28;109194;-68
2023/05/31 09:08:33;;;;;;;11.30;7.87;;;;;;;;;;6147589;28;112126;-69
2023/05/31 09:11:39;;;;;;;8.23;7.23;;;;;;;;;;6142970;28;108897;-71
2023/05/31 09:14:42;;;;;;;38.10;10.40;;;;;;;;;;6138941;28;112015;-68
2023/05/31 09:17:46;;;;;;;37.67;9.77;;;;;;;;;;6136202;28;109566;-61
2023/05/31 09:20:49;;;;;;;24.30;9.33;;;;;;;;;;6139803;28;109041;-61
2023/05/31 09:23:55;;;;;;;16.97;7.80;;;;;;;;;;6128129;28;109264;-60
2023/05/31 09:26:57;;;;;;;10.37;6.90;;;;;;;;;;6138372;28;109720;-60
2023/05/31 09:30:04;;;;;;;12.70;8.40;;;;;;;;;;6139793;28;109029;-66
2023/05/31 09:33:08;;;;;;;10.43;9.33;;;;;;;;;;6134186;28;109883;-67
2023/05/31 09:36:11;;;;;;;9.00;8.10;;;;;;;;;;6132905;28;109163;-66
2023/05/31 09:39:15;;;;;;;8.87;8.07;;;;;;;;;;6139513;28;108963;-66
2023/05/31 09:42:18;;;;;;;11.30;8.37;;;;;;;;;;6137919;28;108968;-66
2023/05/31 09:45:21;;;;;;;9.23;8.43;;;;;;;;;;6125859;28;109018;-65
2023/05/31 09:48:24;;;;;;;9.20;8.00;;;;;;;;;;6139066;28;109841;-67
2023/05/31 09:51:27;;;;;;;9.00;8.10;;;;;;;;;;6139296;28;109478;-68
2023/05/31 09:54:38;;;;;;;8.53;7.80;;;;;;;;;;6118519;28;108981;-67
2023/05/31 09:57:41;;;;;;;8.67;7.80;;;;;;;;;;6104578;28;110052;-65
2023/05/31 10:00:45;;;;;;;8.33;7.53;;;;;;;;;;6114544;28;109454;-65
2023/05/31 10:03:48;;;;;;;9.73;8.93;;;;;;;;;;6122943;28;109440;-65
2023/05/31 10:06:51;;;;;;;8.97;8.27;;;;;;;;;;6137331;28;109051;-64
2023/05/31 10:09:55;;;;;;;8.90;8.00;;;;;;;;;;6127715;28;109013;-64
2023/05/31 10:12:59;;;;;;;8.73;8.03;;;;;;;;;;6137977;28;109929;-65
2023/05/31 10:16:06;;;;;;;7.77;7.07;;;;;;;;;;6138675;28;109580;-61
2023/05/31 10:19:10;;;;;;;7.30;6.80;;;;;;;;;;6129445;28;110276;-60
2023/05/31 10:22:15;;;;;;;7.50;6.73;;;;;;;;;;6138326;28;110051;-60
2023/05/31 10:25:25;;;;;;;6.83;6.23;;;;;;;;;;6138477;28;109293;-60
2023/05/31 10:28:28;;;;;;;6.50;6.00;;;;;;;;;;6138157;28;109318;-62
2023/05/31 10:31:34;;;;;;;7.17;5.77;;;;;;;;;;6128721;28;111543;-62
2023/05/31 10:34:36;;;;;;;9.70;5.63;;;;;;;;;;6138804;28;110092;-61
2023/05/31 10:37:40;;;;;;;6.53;5.93;;;;;;;;;;6138589;28;109186;-67
2023/05/31 10:40:47;;;;;;;6.37;5.77;;;;;;;;;;6138262;28;108980;-67
2023/05/31 10:43:55;;;;;;;6.43;5.87;;;;;;;;;;6128057;28;110222;-66
2023/05/31 10:47:04;;;;;;;7.00;6.30;;;;;;;;;;6142546;28;110046;-67
2023/05/31 10:50:07;;;;;;;6.17;5.60;;;;;;;;;;6126863;28;108921;-65
2023/05/31 10:53:11;;;;;;;6.33;5.73;;;;;;;;;;6106354;28;108959;-65
2023/05/31 10:56:18;;;;;;;8.30;6.27;;;;;;;;;;6113554;28;109025;-66
2023/05/31 10:59:23;;;;;;;9.60;6.50;;;;;;;;;;6138427;28;108842;-68
2023/05/31 11:02:25;;;;;;;14.30;8.27;;;;;;;;;;6137979;28;108999;-67
2023/05/31 11:05:28;;;;;;;21.97;13.53;;;;;;;;;;6129227;28;108995;-68
2023/05/31 11:08:32;;;;;;;60.77;27.60;;;;;;;;;;6136876;28;109053;-70
2023/05/31 11:11:46;;;;;;;219.97;82.23;;;;;;;;;;6138449;28;109045;-69
2023/05/31 11:14:59;;;;;;;109.67;46.53;;;;;;;;;;6140206;28;109261;-69
2023/05/31 11:18:02;;;;;;;138.90;54.90;;;;;;;;;;6151364;28;109001;-67
2023/05/31 11:21:05;;;;;;;250.30;57.20;;;;;;;;;;6161493;28;109019;-66
2023/05/31 11:24:08;;;;;;;211.23;85.70;;;;;;;;;;6161511;28;109066;-70
2023/05/31 11:27:13;;;;;;;178.27;82.07;;;;;;;;;;6146095;28;110066;-69
2023/05/31 11:30:16;;;;;;;315.40;117.93;;;;;;;;;;6136108;28;111921;-73
2023/05/31 11:33:19;;;;;;;289.80;130.17;;;;;;;;;;6135271;28;109000;-73
2023/05/31 11:36:24;;;;;;;211.10;121.93;;;;;;;;;;6136378;28;112585;-72
2023/05/31 11:39:27;;;;;;;185.23;120.80;;;;;;;;;;6125246;28;109002;-72
2023/05/31 11:42:32;;;;;;;38.53;30.43;;;;;;;;;;6136585;28;108980;-73
2023/05/31 11:45:35;;;;;;;28.77;25.63;;;;;;;;;;6137285;28;112330;-72
2023/05/31 11:48:40;;;;;;;18.93;15.20;;;;;;;;;;6140749;28;108662;-65
2023/05/31 11:51:43;;;;;;;11.20;9.57;;;;;;;;;;6130823;28;108760;-66
2023/05/31 11:54:47;;;;;;;12.43;9.90;;;;;;;;;;6139401;28;109301;-67
2023/05/31 11:57:53;;;;;;;123.80;65.60;;;;;;;;;;6140215;28;109306;-68
2023/05/31 12:01:01;;;;;;;84.13;62.70;;;;;;;;;;6130397;28;109327;-68
2023/05/31 12:04:05;;;;;;;48.47;27.57;;;;;;;;;;6118441;28;109383;-65
2023/05/31 12:07:10;;;;;;;28.43;15.27;;;;;;;;;;6138057;28;108991;-66
2023/05/31 12:10:13;;;;;;;12.20;9.30;;;;;;;;;;6135884;28;109112;-64
2023/05/31 12:13:20;;;;;;;9.37;7.30;;;;;;;;;;6128905;28;109187;-65
2023/05/31 12:16:23;;;;;;;7.97;6.00;;;;;;;;;;6131484;28;108982;-64
2023/05/31 12:19:26;;;;;;;28.23;8.07;;;;;;;;;;6129890;28;109151;-61
2023/05/31 12:22:29;;;;;;;41.50;11.07;;;;;;;;;;6118313;28;108948;-62
2023/05/31 12:25:32;;;;;;;64.30;12.60;;;;;;;;;;6122099;28;109031;-63
2023/05/31 12:28:36;;;;;;;92.53;16.00;;;;;;;;;;6124942;28;109335;-64
2023/05/31 12:31:40;;;;;;;101.37;21.77;;;;;;;;;;6116342;28;110355;-64
2023/05/31 12:34:43;;;;;;;206.20;73.87;;;;;;;;;;6113258;28;110003;-67
2023/05/31 12:37:45;;;;;;;107.60;32.97;;;;;;;;;;6116745;28;109396;-65
2023/05/31 12:40:49;;;;;;;136.93;35.00;;;;;;;;;;6139137;28;108913;-65
2023/05/31 12:43:54;;;;;;;110.77;33.47;;;;;;;;;;6139579;28;110124;-66
2023/05/31 12:47:00;;;;;;;125.83;29.90;;;;;;;;;;6126107;28;109124;-69
2023/05/31 12:50:05;;;;;;;78.23;20.67;;;;;;;;;;6122741;28;112124;-68
2023/05/31 12:53:08;;;;;;;74.50;21.30;;;;;;;;;;6139454;28;109017;-66
2023/05/31 12:56:11;;;;;;;89.07;25.07;;;;;;;;;;6138310;28;109739;-65
2023/05/31 12:59:16;;;;;;;104.17;26.93;;;;;;;;;;6128230;28;108999;-68
2023/05/31 13:02:19;;;;;;;70.43;23.97;;;;;;;;;;6138182;28;109391;-70
2023/05/31 13:05:25;;;;;;;109.87;24.90;;;;;;;;;;6139126;28;109009;-72
2023/05/31 13:08:28;;;;;;;132.03;27.67;;;;;;;;;;6139014;28;108964;-71
2023/05/31 13:11:32;;;;;;;79.47;21.97;;;;;;;;;;6123941;28;109865;-69
2023/05/31 13:14:36;;;;;;;81.47;27.80;;;;;;;;;;6139347;28;109034;-73
2023/05/31 13:17:39;;;;;;;252.60;52.10;;;;;;;;;;6142389;28;108958;-71
2023/05/31 13:20:42;;;;;;;99.60;35.67;;;;;;;;;;6146441;28;109051;-68
2023/05/31 13:23:45;;;;;;;149.53;38.53;;;;;;;;;;6129802;28;109271;-72
2023/05/31 13:26:48;;;;;;;115.93;31.90;;;;;;;;;;6139118;28;109033;-69
2023/05/31 13:29:52;;;;;;;122.30;30.73;;;;;;;;;;6134553;28;110722;-71
2023/05/31 13:32:55;;;;;;;121.67;27.10;;;;;;;;;;6148812;28;109668;-72
2023/05/31 13:35:58;;;;;;;90.17;27.73;;;;;;;;;;6154243;28;109066;-72
2023/05/31 13:39:01;;;;;;;98.30;35.07;;;;;;;;;;6153502;28;109061;-71
2023/05/31 13:42:04;;;;;;;118.53;33.97;;;;;;;;;;6146104;28;109042;-71
2023/05/31 13:45:10;;;;;;;95.13;34.90;;;;;;;;;;6144901;28;109549;-71
2023/05/31 13:48:14;;;;;;;122.13;52.00;;;;;;;;;;6137872;28;109427;-71
2023/05/31 13:51:17;;;;;;;97.30;50.73;;;;;;;;;;6151150;28;109014;-72
2023/05/31 13:54:20;;;;;;;133.47;59.77;;;;;;;;;;6149222;28;109166;-72
2023/05/31 13:57:23;;;;;;;133.77;56.10;;;;;;;;;;6140168;28;108936;-72
2023/05/31 14:00:27;;;;;;;147.23;74.60;;;;;;;;;;6160189;28;109161;-73
2023/05/31 14:03:30;;;;;;;155.10;85.90;;;;;;;;;;6144747;28;109147;-72
2023/05/31 14:06:33;;;;;;;155.03;97.20;;;;;;;;;;6151581;28;109532;-72
2023/05/31 14:09:37;;;;;;;192.57;106.63;;;;;;;;;;6134381;28;110428;-74
2023/05/31 14:12:42;;;;;;;189.07;95.57;;;;;;;;;;6142419;28;109053;-71
2023/05/31 14:15:47;;;;;;;142.87;79.57;;;;;;;;;;6140566;28;109348;-69
2023/05/31 14:18:50;;;;;;;150.33;78.30;;;;;;;;;;6128831;28;108843;-72
2023/05/31 14:21:56;;;;;;;122.40;79.57;;;;;;;;;;6143275;28;112508;-71
2023/05/31 14:24:59;;;;;;;132.53;81.17;;;;;;;;;;6126425;28;109065;-72
2023/05/31 14:28:02;;;;;;;130.03;81.00;;;;;;;;;;6144607;28;109115;-71
2023/05/31 14:31:06;;;;;;;132.97;83.87;;;;;;;;;;6137283;28;109067;-67
2023/05/31 14:34:09;;;;;;;151.03;85.30;;;;;;;;;;6157427;28;109065;-70
2023/05/31 14:37:12;;;;;;;138.43;81.07;;;;;;;;;;6144422;28;109084;-67
2023/05/31 14:40:27;;;;;;;190.20;73.97;;;;;;;;;;6119021;28;110650;-72
2023/05/31 14:43:30;;;;;;;229.43;61.20;;;;;;;;;;6140869;28;109149;-72
2023/05/31 14:46:34;;;;;;;192.23;48.80;;;;;;;;;;6156024;28;109030;-72
2023/05/31 14:49:37;;;;;;;96.00;30.50;;;;;;;;;;6148618;28;109115;-72
2023/05/31 14:52:40;;;;;;;59.27;24.63;;;;;;;;;;6125748;28;110287;-73
2023/05/31 14:55:43;;;;;;;105.77;28.90;;;;;;;;;;6137470;28;109220;-68
2023/05/31 14:58:46;;;;;;;98.27;26.10;;;;;;;;;;6133388;28;109379;-68
2023/05/31 15:01:51;;;;;;;67.97;23.83;;;;;;;;;;6130109;28;109169;-70
2023/05/31 15:04:54;;;;;;;74.63;25.23;;;;;;;;;;6117255;28;109115;-71
2023/05/31 15:07:57;;;;;;;104.23;26.97;;;;;;;;;;6135699;28;111678;-72
2023/05/31 15:11:00;;;;;;;107.43;29.77;;;;;;;;;;6124068;28;109270;-67
2023/05/31 15:14:04;;;;;;;135.30;28.87;;;;;;;;;;6131150;28;108995;-69
2023/05/31 15:17:11;;;;;;;118.27;28.30;;;;;;;;;;6150010;28;109130;-70
2023/05/31 15:20:14;;;;;;;169.63;32.17;;;;;;;;;;6135216;28;108764;-65
2023/05/31 15:23:17;;;;;;;207.90;32.00;;;;;;;;;;6116527;28;110052;-65
2023/05/31 15:26:22;;;;;;;125.47;28.10;;;;;;;;;;6129526;28;109073;-65
2023/05/31 15:29:25;;;;;;;156.33;29.27;;;;;;;;;;6139616;28;109399;-64
2023/05/31 15:32:29;;;;;;;187.50;32.20;;;;;;;;;;6123277;28;109237;-68
2023/05/31 15:35:33;;;;;;;157.53;29.43;;;;;;;;;;6121085;28;110122;-68
2023/05/31 15:38:36;;;;;;;140.13;27.60;;;;;;;;;;6124898;28;110110;-69
2023/05/31 15:41:39;;;;;;;148.33;26.10;;;;;;;;;;6129735;28;109030;-67
2023/05/31 15:44:42;;;;;;;133.53;23.60;;;;;;;;;;6141155;28;112574;-67
2023/05/31 15:47:46;;;;;;;133.80;23.97;;;;;;;;;;6160577;28;109119;-69
2023/05/31 15:50:49;;;;;;;131.50;24.53;;;;;;;;;;6132131;28;110355;-67
2023/05/31 15:53:52;;;;;;;130.77;24.90;;;;;;;;;;6139114;28;109318;-67
2023/05/31 15:56:56;;;;;;;112.87;23.70;;;;;;;;;;6121189;28;110967;-67
2023/05/31 15:59:59;;;;;;;104.37;23.17;;;;;;;;;;6124732;28;112738;-68
2023/05/31 16:03:03;;;;;;;105.23;24.80;;;;;;;;;;6139254;28;108913;-71
2023/05/31 16:06:06;;;;;;;91.70;22.17;;;;;;;;;;6139558;28;109534;-64
2023/05/31 16:09:09;;;;;;;99.03;22.83;;;;;;;;;;6152233;28;108929;-65
2023/05/31 16:12:12;;;;;;;74.60;20.40;;;;;;;;;;6153484;28;109085;-68
2023/05/31 16:15:15;;;;;;;63.33;18.30;;;;;;;;;;6160218;28;108997;-68
2023/05/31 16:18:19;;;;;;;77.67;17.83;;;;;;;;;;6145433;28;109017;-67
2023/05/31 16:21:22;;;;;;;57.40;17.17;;;;;;;;;;6115375;28;109611;-68
2023/05/31 16:24:25;;;;;;;56.03;16.50;;;;;;;;;;6104157;28;110115;-67
2023/05/31 16:27:28;;;;;;;53.97;15.20;;;;;;;;;;6130225;28;109103;-68
2023/05/31 16:30:31;;;;;;;60.10;13.80;;;;;;;;;;6115141;28;109042;-68
2023/05/31 16:33:35;;;;;;;42.57;14.67;;;;;;;;;;6109698;28;109328;-69
2023/05/31 16:36:38;;;;;;;39.13;12.97;;;;;;;;;;6114700;28;109128;-67
2023/05/31 16:39:41;;;;;;;34.40;11.47;;;;;;;;;;6138691;28;109478;-69
2023/05/31 16:42:44;;;;;;;38.33;11.70;;;;;;;;;;6131422;28;109037;-68
2023/05/31 16:45:47;;;;;;;37.87;13.03;;;;;;;;;;6113879;28;109084;-70
2023/05/31 16:48:51;;;;;;;99.20;18.97;;;;;;;;;;6135114;28;109029;-69
2023/05/31 16:51:54;;;;;;;61.80;13.50;;;;;;;;;;6127079;28;109945;-67
2023/05/31 16:54:57;;;;;;;96.40;17.60;;;;;;;;;;6136944;28;109087;-68
2023/05/31 16:58:00;;;;;;;75.63;14.97;;;;;;;;;;6110388;28;109461;-69
2023/05/31 17:01:03;;;;;;;71.90;15.50;;;;;;;;;;6137755;28;109003;-67
2023/05/31 17:04:07;;;;;;;16.70;8.20;;;;;;;;;;6123749;28;109042;-68
2023/05/31 17:07:10;;;;;;;30.47;8.70;;;;;;;;;;6137515;28;109044;-68
2023/05/31 17:10:13;;;;;;;32.40;19.20;;;;;;;;;;6113834;28;110276;-68
2023/05/31 17:13:16;;;;;;;23.63;13.87;;;;;;;;;;6136873;28;109008;-69
2023/05/31 17:16:19;;;;;;;33.07;12.60;;;;;;;;;;6138126;28;109127;-67
2023/05/31 17:19:24;;;;;;;31.83;13.17;;;;;;;;;;6131971;28;108975;-68
2023/05/31 17:22:27;;;;;;;16.33;10.20;;;;;;;;;;6136295;28;109065;-67
2023/05/31 17:25:30;;;;;;;22.57;11.20;;;;;;;;;;6116233;28;112161;-68
2023/05/31 17:28:33;;;;;;;64.33;14.57;;;;;;;;;;6130173;28;109061;-69
2023/05/31 17:31:36;;;;;;;60.10;14.97;;;;;;;;;;6120719;28;109099;-68
2023/05/31 17:34:40;;;;;;;48.13;13.40;;;;;;;;;;6127543;28;109407;-68
2023/05/31 17:37:43;;;;;;;41.20;13.40;;;;;;;;;;6155346;28;109063;-67
2023/05/31 17:40:46;;;;;;;35.37;13.60;;;;;;;;;;6146576;28;110046;-65
2023/05/31 17:43:49;;;;;;;37.63;12.90;;;;;;;;;;6128029;28;112144;-66
2023/05/31 17:46:52;;;;;;;50.77;14.90;;;;;;;;;;6136310;28;109231;-67
2023/05/31 17:50:00;;;;;;;51.73;15.27;;;;;;;;;;6131652;28;109939;-66